Agency, Iowa
Current Conditions -  °F | °C
As of 4:35 AM on Wednesday 22 Oct 2014 (Local Time) from KFFL Reporting Station
NA  
Wind Chill: 34°   Ceiling: NA
Heat Index: 37°   Visibility: NA
Dew Point: 36°   Wind: 5mph
Humidity: 93%   Direction: 120°ESE
Pressure: 30.26"   Gusts: NA
Location:  41°N, 92.31°W
Report Text: KFFL 220935Z AUTO 12004KT 03/02 A3026 RMK AO2
Loading
Personal Weather Stations






























Interactive Weather Map New forecast layout! Learn more

10-Day Weather Forecast

Advertisements
Track Severe Weather on mobile